createdAt,value
2022-08-07T00:00:39.860Z,23.53
2022-08-07T00:03:09.164Z,23.40
2022-08-07T00:05:37.418Z,23.51
2022-08-07T00:08:05.622Z,23.52
2022-08-07T00:10:36.480Z,23.39
2022-08-07T00:13:23.809Z,23.49
2022-08-07T00:15:53.819Z,23.62
2022-08-07T00:18:25.093Z,23.54
2022-08-07T00:21:03.522Z,23.56
2022-08-07T00:23:37.454Z,23.68
2022-08-07T00:26:13.024Z,23.64
2022-08-07T00:28:56.774Z,23.84
2022-08-07T00:31:26.125Z,23.73
2022-08-07T00:34:09.008Z,23.66
2022-08-07T00:36:38.516Z,23.58
2022-08-07T00:39:06.190Z,23.68
2022-08-07T00:41:37.412Z,23.80
2022-08-07T00:44:13.023Z,23.81
2022-08-07T00:46:42.631Z,23.95
2022-08-07T00:49:10.936Z,23.90
2022-08-07T00:51:58.906Z,23.95
2022-08-07T00:54:26.316Z,24.05
2022-08-07T00:56:53.695Z,24.17
2022-08-07T00:59:35.068Z,24.18
2022-08-07T01:02:13.935Z,24.14
2022-08-07T01:04:58.281Z,24.18
2022-08-07T01:07:28.111Z,24.14
2022-08-07T01:10:04.218Z,24.14
2022-08-07T01:12:33.084Z,24.07
2022-08-07T01:15:03.941Z,24.02
2022-08-07T01:17:32.724Z,23.99
2022-08-07T01:20:16.845Z,24.10
2022-08-07T01:23:00.567Z,23.86
2022-08-07T01:25:54.514Z,23.88
2022-08-07T01:28:22.722Z,23.99
2022-08-07T01:30:52.742Z,24.02
2022-08-07T01:33:22.481Z,23.91
2022-08-07T01:35:54.474Z,23.88
2022-08-07T01:38:34.138Z,23.96
2022-08-07T01:41:05.499Z,24.07
2022-08-07T01:43:38.537Z,24.12
2022-08-07T01:46:08.262Z,23.96
2022-08-07T01:48:42.179Z,24.13
2022-08-07T01:52:02.074Z,24.12
2022-08-07T01:54:13.025Z,24.12
2022-08-07T01:57:04.533Z,24.14
2022-08-07T01:59:54.996Z,24.25
2022-08-07T02:02:32.614Z,24.03
2022-08-07T02:05:48.207Z,23.94
2022-08-07T02:08:16.929Z,24.08
2022-08-07T02:10:48.663Z,24.00
2022-08-07T02:13:47.101Z,23.95
2022-08-07T02:16:17.880Z,24.12
2022-08-07T02:18:51.207Z,23.97
2022-08-07T02:21:19.399Z,24.05
2022-08-07T02:23:47.838Z,23.94
2022-08-07T02:26:32.366Z,23.92
2022-08-07T02:29:05.292Z,23.90
2022-08-07T02:31:41.241Z,23.81
2022-08-07T02:34:11.186Z,23.93
2022-08-07T02:36:45.237Z,23.88
2022-08-07T02:39:16.206Z,23.87
2022-08-07T02:42:10.362Z,23.81
2022-08-07T02:44:45.809Z,23.88
2022-08-07T02:47:35.112Z,23.71
2022-08-07T02:50:06.847Z,23.72
2022-08-07T02:52:44.073Z,23.73
2022-08-07T02:55:27.948Z,23.74
2022-08-07T02:58:12.099Z,23.73
2022-08-07T03:00:41.896Z,23.77
2022-08-07T03:03:22.604Z,23.84
2022-08-07T03:05:52.140Z,23.84
2022-08-07T03:08:29.107Z,23.81
2022-08-07T03:10:58.520Z,23.66
2022-08-07T03:13:26.633Z,23.64
2022-08-07T03:15:56.345Z,23.75
2022-08-07T03:18:34.697Z,23.73
2022-08-07T03:21:08.691Z,23.73
2022-08-07T03:24:18.462Z,23.64
2022-08-07T03:26:33.072Z,23.69
2022-08-07T03:29:03.472Z,23.73
2022-08-07T03:31:42.460Z,23.76
2022-08-07T03:34:18.453Z,23.60
2022-08-07T03:36:51.815Z,23.80
2022-08-07T03:39:45.919Z,23.73
2022-08-07T03:42:09.311Z,23.85
2022-08-07T03:44:37.940Z,23.83
2022-08-07T03:47:13.378Z,23.79
2022-08-07T03:49:47.653Z,23.74
2022-08-07T03:52:22.638Z,23.76
2022-08-07T03:55:06.803Z,23.61
2022-08-07T03:58:08.689Z,23.77
2022-08-07T04:00:29.262Z,23.78
2022-08-07T04:02:59.630Z,23.73
2022-08-07T04:05:40.754Z,23.85
2022-08-07T04:08:12.538Z,23.70
2022-08-07T04:10:54.501Z,23.70
2022-08-07T04:14:10.406Z,23.55
2022-08-07T04:16:30.994Z,23.45
2022-08-07T04:19:03.845Z,23.53
2022-08-07T04:21:40.179Z,23.50
2022-08-07T04:24:33.727Z,23.53
2022-08-07T04:27:04.456Z,23.58
2022-08-07T04:29:40.309Z,23.47
2022-08-07T04:32:33.991Z,23.58
2022-08-07T04:35:11.483Z,23.36
2022-08-07T04:38:00.809Z,23.43
2022-08-07T04:40:31.390Z,23.33
2022-08-07T04:43:02.149Z,23.55
2022-08-07T04:46:01.625Z,23.48
2022-08-07T04:48:51.024Z,23.64
2022-08-07T04:51:27.588Z,23.58
2022-08-07T04:54:33.385Z,23.52
2022-08-07T04:58:07.389Z,23.66
2022-08-07T05:00:12.246Z,23.56
2022-08-07T05:02:59.233Z,23.58
2022-08-07T05:05:52.833Z,23.71
2022-08-07T05:08:59.200Z,23.81
2022-08-07T05:11:26.323Z,23.85
2022-08-07T05:14:55.283Z,23.85
2022-08-07T05:17:11.915Z,23.77
2022-08-07T05:19:49.760Z,23.78
2022-08-07T05:22:26.786Z,23.87
2022-08-07T05:24:59.697Z,23.98
2022-08-07T05:28:03.503Z,23.97
2022-08-07T05:30:21.167Z,24.05
2022-08-07T05:33:03.264Z,24.06
2022-08-07T05:35:42.234Z,24.23
2022-08-07T05:38:11.079Z,24.29
2022-08-07T05:40:41.871Z,24.31
2022-08-07T05:43:19.408Z,24.54
2022-08-07T05:46:07.097Z,24.51
2022-08-07T05:48:34.815Z,24.48
2022-08-07T05:51:03.364Z,24.48
2022-08-07T05:54:12.780Z,24.65
2022-08-07T05:56:20.077Z,24.67
2022-08-07T05:59:00.061Z,24.74
2022-08-07T06:01:34.832Z,24.77
2022-08-07T06:04:04.995Z,24.81
2022-08-07T06:06:35.127Z,24.91
2022-08-07T06:09:04.663Z,24.83
2022-08-07T06:11:34.470Z,25.00
2022-08-07T06:14:11.921Z,25.05
2022-08-07T06:16:50.226Z,24.94
2022-08-07T06:19:57.666Z,25.13
2022-08-07T06:22:15.644Z,25.20
2022-08-07T06:25:00.900Z,25.09
2022-08-07T06:28:00.434Z,25.17
2022-08-07T06:30:24.017Z,25.24
2022-08-07T06:33:00.840Z,25.35
2022-08-07T06:35:38.949Z,25.43
2022-08-07T06:38:20.095Z,25.54
2022-08-07T06:40:50.516Z,25.42
2022-08-07T06:43:22.228Z,25.37
2022-08-07T06:45:56.332Z,25.44
2022-08-07T06:48:28.631Z,25.47
2022-08-07T06:50:59.418Z,25.47
2022-08-07T06:54:12.198Z,25.49
2022-08-07T06:56:49.791Z,25.58
2022-08-07T07:00:13.979Z,25.65
2022-08-07T07:02:48.777Z,25.65
2022-08-07T07:05:12.780Z,25.82
2022-08-07T07:07:59.472Z,25.81
2022-08-07T07:10:31.162Z,25.89
2022-08-07T07:13:56.103Z,25.86
2022-08-07T07:16:19.610Z,25.93
2022-08-07T07:18:51.511Z,26.03
2022-08-07T07:21:40.267Z,26.01
2022-08-07T07:24:20.579Z,25.95
2022-08-07T07:26:52.807Z,25.98
2022-08-07T07:29:57.269Z,26.00
2022-08-07T07:32:14.919Z,26.08
2022-08-07T07:34:45.751Z,26.04
2022-08-07T07:37:45.520Z,26.26
2022-08-07T07:40:14.637Z,26.46
2022-08-07T07:42:53.749Z,26.50
2022-08-07T07:46:37.965Z,26.49
2022-08-07T07:48:35.154Z,26.64
2022-08-07T07:51:07.932Z,26.67
2022-08-07T07:53:52.199Z,26.93
2022-08-07T07:56:29.938Z,26.90
2022-08-07T07:58:59.972Z,26.91
2022-08-07T08:02:01.707Z,26.98
2022-08-07T08:04:20.196Z,27.10
2022-08-07T08:06:54.343Z,27.19
2022-08-07T08:09:29.180Z,27.22
2022-08-07T08:12:01.883Z,27.39
2022-08-07T08:14:36.665Z,27.50
2022-08-07T08:17:55.497Z,27.56
2022-08-07T08:20:17.550Z,27.70
2022-08-07T08:23:09.440Z,27.74
2022-08-07T08:26:02.192Z,27.90
2022-08-07T08:28:38.268Z,27.98
2022-08-07T08:31:14.728Z,27.98
2022-08-07T08:33:49.604Z,28.15
2022-08-07T08:36:30.800Z,28.32
2022-08-07T08:39:02.190Z,28.60
2022-08-07T08:41:57.218Z,28.62
2022-08-07T08:44:44.848Z,28.73
2022-08-07T08:47:51.786Z,28.66
2022-08-07T08:50:39.099Z,28.79
2022-08-07T08:53:45.978Z,29.28
2022-08-07T08:56:24.206Z,29.27
2022-08-07T08:58:57.189Z,29.40
2022-08-07T09:01:44.116Z,29.42
2022-08-07T09:04:26.139Z,29.49
2022-08-07T09:07:11.850Z,29.31
2022-08-07T09:09:58.080Z,29.27
2022-08-07T09:12:46.772Z,29.39
2022-08-07T09:16:24.812Z,29.42
2022-08-07T09:19:51.202Z,29.34
2022-08-07T09:24:31.902Z,29.42
2022-08-07T09:25:34.288Z,29.41
2022-08-07T09:30:00.473Z,29.38
2022-08-07T09:31:04.068Z,29.50
2022-08-07T09:33:58.232Z,29.41
2022-08-07T09:36:37.309Z,29.49
2022-08-07T09:39:55.249Z,29.35
2022-08-07T09:42:48.020Z,29.74
2022-08-07T09:47:25.245Z,30.19
2022-08-07T09:48:56.167Z,30.14
2022-08-07T09:52:09.928Z,30.13
2022-08-07T09:54:40.317Z,30.22
2022-08-07T09:57:47.174Z,30.27
2022-08-07T10:00:16.167Z,30.43
2022-08-07T10:04:03.081Z,30.41
2022-08-07T10:06:00.168Z,30.46
2022-08-07T10:08:58.368Z,30.58
2022-08-07T10:12:02.326Z,30.68
2022-08-07T10:15:15.386Z,30.86
2022-08-07T10:18:03.109Z,30.83
2022-08-07T10:21:19.559Z,30.82
2022-08-07T10:24:05.193Z,30.84
2022-08-07T10:26:58.926Z,31.03
2022-08-07T10:30:06.500Z,30.64
2022-08-07T10:32:59.731Z,30.73
2022-08-07T10:35:56.008Z,30.96
2022-08-07T10:38:49.061Z,31.07
2022-08-07T10:41:47.209Z,30.91
2022-08-07T10:44:28.508Z,31.00
2022-08-07T10:47:26.942Z,31.07
2022-08-07T10:50:25.876Z,30.97
2022-08-07T10:53:21.668Z,30.89
2022-08-07T10:56:02.233Z,30.84
2022-08-07T10:58:59.729Z,30.97
2022-08-07T11:01:35.515Z,31.10
2022-08-07T11:04:32.222Z,31.26
2022-08-07T11:07:59.150Z,31.13
2022-08-07T11:10:20.157Z,31.21
2022-08-07T11:13:04.279Z,31.15
2022-08-07T11:15:36.146Z,31.36
2022-08-07T11:18:12.707Z,31.66
2022-08-07T11:20:47.280Z,31.71
2022-08-07T11:23:38.856Z,31.80
2022-08-07T11:26:49.830Z,31.86
2022-08-07T11:29:48.300Z,32.09
2022-08-07T11:32:31.087Z,32.11
2022-08-07T11:35:01.371Z,32.17
2022-08-07T11:37:58.019Z,32.17
2022-08-07T11:40:39.644Z,32.06
2022-08-07T11:43:29.801Z,32.27
2022-08-07T11:46:36.600Z,32.11
2022-08-07T11:50:18.775Z,32.27
2022-08-07T11:52:48.011Z,32.43
2022-08-07T11:56:09.719Z,32.30
2022-08-07T11:58:20.798Z,32.25
2022-08-07T12:01:07.532Z,32.14
2022-08-07T12:04:03.302Z,32.36
2022-08-07T12:06:51.618Z,32.35
2022-08-07T12:09:31.810Z,32.39
2022-08-07T12:12:09.012Z,32.35
2022-08-07T12:14:55.701Z,32.50
2022-08-07T12:17:58.638Z,32.56
2022-08-07T12:20:36.674Z,32.47
2022-08-07T12:23:37.293Z,32.60
2022-08-07T12:26:29.968Z,32.85
2022-08-07T12:29:01.700Z,32.92
2022-08-07T12:32:01.986Z,32.92
2022-08-07T12:34:37.104Z,32.93
2022-08-07T12:37:16.225Z,33.01
2022-08-07T12:39:50.490Z,32.95
2022-08-07T12:42:27.222Z,33.08
2022-08-07T12:44:58.378Z,33.16
2022-08-07T12:47:43.926Z,33.08
2022-08-07T12:50:40.203Z,33.37
2022-08-07T12:53:22.579Z,33.35
2022-08-07T12:56:03.354Z,33.40
2022-08-07T12:58:35.341Z,33.46
2022-08-07T13:01:14.044Z,33.40
2022-08-07T13:04:02.965Z,33.45
2022-08-07T13:06:32.197Z,33.46
2022-08-07T13:10:19.312Z,33.52
2022-08-07T13:12:22.633Z,33.42
2022-08-07T13:15:02.129Z,33.34
2022-08-07T13:17:41.131Z,33.44
2022-08-07T13:20:27.793Z,33.37
2022-08-07T13:23:59.757Z,33.43
2022-08-07T13:26:01.915Z,33.46
2022-08-07T13:28:39.761Z,33.45
2022-08-07T13:31:13.176Z,33.58
2022-08-07T13:34:30.162Z,33.34
2022-08-07T13:36:43.700Z,33.41
2022-08-07T13:39:28.562Z,33.21
2022-08-07T13:42:10.395Z,33.01
2022-08-07T13:44:39.719Z,33.13
2022-08-07T13:47:15.162Z,33.04
2022-08-07T13:50:33.289Z,33.03
2022-08-07T13:52:40.842Z,33.11
2022-08-07T13:55:19.713Z,33.04
2022-08-07T13:58:28.103Z,33.09
2022-08-07T14:01:08.948Z,33.11
2022-08-07T14:04:05.088Z,33.07
2022-08-07T14:06:32.238Z,33.02
2022-08-07T14:09:04.785Z,32.84
2022-08-07T14:11:53.183Z,32.97
2022-08-07T14:14:26.871Z,32.78
2022-08-07T14:16:57.589Z,32.70
2022-08-07T14:20:40.725Z,32.53
2022-08-07T14:22:34.772Z,32.63
2022-08-07T14:25:12.453Z,32.58
2022-08-07T14:28:12.208Z,32.53
2022-08-07T14:30:40.612Z,32.60
2022-08-07T14:33:08.672Z,32.71
2022-08-07T14:35:45.488Z,32.81
2022-08-07T14:38:26.313Z,33.01
2022-08-07T14:41:02.114Z,32.96
2022-08-07T14:43:58.159Z,32.82
2022-08-07T14:46:30.516Z,32.99
2022-08-07T14:49:56.114Z,32.92
2022-08-07T14:54:41.693Z,32.70
2022-08-07T14:57:18.728Z,32.67
2022-08-07T15:00:04.749Z,32.63
2022-08-07T15:05:24.774Z,32.82
2022-08-07T15:07:54.216Z,32.94
2022-08-07T15:10:26.164Z,32.82
2022-08-07T15:12:58.413Z,32.82
2022-08-07T15:15:52.635Z,32.78
2022-08-07T15:18:33.905Z,32.87
2022-08-07T15:21:08.194Z,32.91
2022-08-07T15:25:04.038Z,32.88
2022-08-07T15:26:36.751Z,32.93
2022-08-07T15:30:06.637Z,32.86
2022-08-07T15:32:00.686Z,32.97
2022-08-07T15:34:50.379Z,32.95
2022-08-07T15:37:27.555Z,32.89
2022-08-07T15:39:59.012Z,32.91
2022-08-07T15:45:56.214Z,32.84
2022-08-07T15:48:25.780Z,32.78
2022-08-07T15:51:08.276Z,32.81
2022-08-07T15:53:52.861Z,32.73
2022-08-07T15:56:34.947Z,32.69
2022-08-07T15:59:06.152Z,32.70
2022-08-07T16:02:01.826Z,32.63
2022-08-07T16:04:33.637Z,32.37
2022-08-07T16:07:05.170Z,32.52
2022-08-07T16:10:05.990Z,32.67
2022-08-07T16:13:17.797Z,32.45
2022-08-07T16:16:02.273Z,32.40
2022-08-07T16:18:49.628Z,32.43
2022-08-07T16:22:17.887Z,32.25
2022-08-07T16:25:03.511Z,32.19
2022-08-07T16:27:47.351Z,32.30
2022-08-07T16:30:30.768Z,32.20
2022-08-07T16:34:01.404Z,32.23
2022-08-07T16:37:02.757Z,32.07
2022-08-07T16:39:33.542Z,32.22
2022-08-07T16:42:23.963Z,32.24
2022-08-07T16:46:33.755Z,32.13
2022-08-07T16:48:05.185Z,32.02
2022-08-07T16:51:20.523Z,32.00
2022-08-07T16:54:01.837Z,32.08
2022-08-07T16:56:56.067Z,31.93
2022-08-07T16:59:46.773Z,31.94
2022-08-07T17:02:51.785Z,31.84
2022-08-07T17:06:18.856Z,31.87
2022-08-07T17:08:18.708Z,31.87
2022-08-07T17:10:57.377Z,31.70
2022-08-07T17:14:19.146Z,31.59
2022-08-07T17:16:57.315Z,31.71
2022-08-07T17:20:00.876Z,31.51
2022-08-07T17:22:42.553Z,31.40
2022-08-07T17:25:15.825Z,31.43
2022-08-07T17:28:19.498Z,31.54
2022-08-07T17:31:16.932Z,31.43
2022-08-07T17:34:32.831Z,31.40
2022-08-07T17:36:49.007Z,31.58
2022-08-07T17:39:58.413Z,31.29
2022-08-07T17:42:59.630Z,31.30
2022-08-07T17:45:28.268Z,31.25
2022-08-07T17:47:59.624Z,31.21
2022-08-07T17:50:42.473Z,31.19
2022-08-07T17:54:01.334Z,31.20
2022-08-07T17:56:29.002Z,31.14
2022-08-07T17:59:01.811Z,31.14
2022-08-07T18:01:43.160Z,31.10
2022-08-07T18:04:16.289Z,31.14
2022-08-07T18:07:19.653Z,31.07
2022-08-07T18:10:07.499Z,31.03
2022-08-07T18:12:50.353Z,30.98
2022-08-07T18:15:32.523Z,30.99
2022-08-07T18:18:46.614Z,30.86
2022-08-07T18:21:27.491Z,30.85
2022-08-07T18:24:07.656Z,30.86
2022-08-07T18:26:40.747Z,30.75
2022-08-07T18:30:08.344Z,30.66
2022-08-07T18:32:07.719Z,30.62
2022-08-07T18:35:08.016Z,30.63
2022-08-07T18:38:58.250Z,30.59
2022-08-07T18:40:53.905Z,30.39
2022-08-07T18:43:49.671Z,30.29
2022-08-07T18:46:35.006Z,30.09
2022-08-07T18:50:31.018Z,30.11
2022-08-07T18:52:35.222Z,29.98
2022-08-07T18:55:43.173Z,29.90
2022-08-07T18:58:26.110Z,29.68
2022-08-07T19:02:18.264Z,29.81
2022-08-07T19:04:25.028Z,29.60
2022-08-07T19:07:35.143Z,29.48
2022-08-07T19:10:14.877Z,29.52
2022-08-07T19:13:10.123Z,29.55
2022-08-07T19:16:04.329Z,29.52
2022-08-07T19:19:13.221Z,29.39
2022-08-07T19:21:56.045Z,29.38
2022-08-07T19:24:31.035Z,29.43
2022-08-07T19:28:31.057Z,29.33
2022-08-07T19:31:06.290Z,29.32
2022-08-07T19:32:50.858Z,29.33
2022-08-07T19:35:22.658Z,29.07
2022-08-07T19:37:57.498Z,29.10
2022-08-07T19:40:31.772Z,29.10
2022-08-07T19:43:10.562Z,29.16
2022-08-07T19:46:07.697Z,29.25
2022-08-07T19:48:32.111Z,29.14
2022-08-07T19:51:20.068Z,29.08
2022-08-07T19:54:32.447Z,29.07
2022-08-07T19:57:52.006Z,28.88
2022-08-07T19:59:41.195Z,28.79
2022-08-07T20:02:19.481Z,28.63
2022-08-07T20:04:50.273Z,28.59
2022-08-07T20:07:46.918Z,28.61
2022-08-07T20:10:38.345Z,28.56
2022-08-07T20:13:05.944Z,28.64
2022-08-07T20:15:37.049Z,28.65
2022-08-07T20:18:14.693Z,28.59
2022-08-07T20:20:48.427Z,28.61
2022-08-07T20:23:40.281Z,28.44
2022-08-07T20:26:10.000Z,28.29
2022-08-07T20:28:39.062Z,28.35
2022-08-07T20:31:21.360Z,28.51
2022-08-07T20:33:56.654Z,28.34
2022-08-07T20:36:29.669Z,28.26
2022-08-07T20:38:59.645Z,28.24
2022-08-07T20:41:38.003Z,28.22
2022-08-07T20:44:12.324Z,28.26
2022-08-07T20:46:43.761Z,28.46
2022-08-07T20:50:00.920Z,28.39
2022-08-07T20:52:16.468Z,28.33
2022-08-07T20:54:54.100Z,28.32
2022-08-07T20:57:25.011Z,28.21
2022-08-07T21:00:05.227Z,28.20
2022-08-07T21:02:58.729Z,28.21
2022-08-07T21:05:50.919Z,28.04
2022-08-07T21:09:02.917Z,27.75
2022-08-07T21:11:50.144Z,27.82
2022-08-07T21:14:32.610Z,27.67
2022-08-07T21:18:04.019Z,27.62
2022-08-07T21:20:04.669Z,27.62
2022-08-07T21:22:39.767Z,27.55
2022-08-07T21:25:39.118Z,27.46
2022-08-07T21:28:48.013Z,27.36
2022-08-07T21:32:10.975Z,27.20
2022-08-07T21:34:32.618Z,27.10
2022-08-07T21:37:04.085Z,27.01
2022-08-07T21:39:56.477Z,26.93
2022-08-07T21:43:03.515Z,26.89
2022-08-07T21:46:08.438Z,26.82
2022-08-07T21:48:59.979Z,27.00
2022-08-07T21:51:27.330Z,26.88
2022-08-07T21:54:12.740Z,26.81
2022-08-07T21:57:31.460Z,26.93
2022-08-07T22:00:22.925Z,26.84
2022-08-07T22:03:17.101Z,26.81
2022-08-07T22:06:02.059Z,26.93
2022-08-07T22:08:33.592Z,26.90
2022-08-07T22:11:03.938Z,26.92
2022-08-07T22:13:51.985Z,26.89
2022-08-07T22:16:44.690Z,26.74
2022-08-07T22:19:30.306Z,26.83
2022-08-07T22:22:17.612Z,26.61
2022-08-07T22:24:54.660Z,26.65
2022-08-07T22:28:08.391Z,26.60
2022-08-07T22:30:21.872Z,26.63
2022-08-07T22:33:09.333Z,26.69
2022-08-07T22:35:46.287Z,26.58
2022-08-07T22:38:25.597Z,26.56
2022-08-07T22:41:02.969Z,26.49
2022-08-07T22:43:39.762Z,26.44
2022-08-07T22:47:03.069Z,26.45
2022-08-07T22:49:37.963Z,26.25
2022-08-07T22:52:36.920Z,26.33
2022-08-07T22:55:22.542Z,26.26
2022-08-07T22:58:12.432Z,26.26
2022-08-07T23:01:06.242Z,26.17
2022-08-07T23:03:59.125Z,26.10
2022-08-07T23:06:50.038Z,26.04
2022-08-07T23:10:05.219Z,25.95
2022-08-07T23:12:51.275Z,25.71
2022-08-07T23:16:06.063Z,25.79
2022-08-07T23:19:16.950Z,25.79
2022-08-07T23:21:56.533Z,25.79
2022-08-07T23:24:38.780Z,25.68
2022-08-07T23:28:20.575Z,25.51
2022-08-07T23:31:06.280Z,25.42
2022-08-07T23:34:22.553Z,25.31
2022-08-07T23:37:20.366Z,25.31
2022-08-07T23:40:28.252Z,25.16
2022-08-07T23:43:19.764Z,25.12
2022-08-07T23:46:10.963Z,25.06
2022-08-07T23:48:58.758Z,25.06
2022-08-07T23:53:08.845Z,25.13
2022-08-07T23:54:43.830Z,24.95
2022-08-07T23:57:32.455Z,24.96
